Time;durP1;ratioP1;P1;durP2;ratioP2;P2;SDS_P1;SDS_P2;PMS_P1;PMS_P2;Temp;Humidity;BMP_temperature;BMP_pressure;BME280_temperature;BME280_humidity;BME280_pressure;Samples;Min_cycle;Max_cycle;Signal;HPM_P1;HPM_P2
2023/08/21 00:00:34;;;;;;;11.77;10.73;;;22.60;99.90;;;;;;5088567;28;20446;-65
2023/08/21 00:03:01;;;;;;;9.90;8.97;;;22.50;99.90;;;;;;5088647;28;20480;-65
2023/08/21 00:05:27;;;;;;;8.80;8.10;;;22.50;99.90;;;;;;5089834;28;20485;-65
2023/08/21 00:07:54;;;;;;;11.03;10.03;;;22.50;99.90;;;;;;5089122;28;20943;-66
2023/08/21 00:10:21;;;;;;;10.20;9.20;;;22.50;99.90;;;;;;5089685;28;20492;-65
2023/08/21 00:12:48;;;;;;;9.73;8.83;;;22.40;99.90;;;;;;5089556;28;20586;-65
2023/08/21 00:15:16;;;;;;;9.73;8.93;;;22.40;99.90;;;;;;5089741;28;20998;-65
2023/08/21 00:17:43;;;;;;;10.70;9.83;;;22.40;99.90;;;;;;5089041;28;20450;-66
2023/08/21 00:20:11;;;;;;;9.33;8.53;;;22.40;99.90;;;;;;5089809;28;20964;-65
2023/08/21 00:22:38;;;;;;;10.87;9.90;;;22.40;99.90;;;;;;5089658;28;20476;-66
2023/08/21 00:25:05;;;;;;;11.33;10.50;;;22.30;99.90;;;;;;5089510;28;20966;-65
2023/08/21 00:27:32;;;;;;;10.03;9.23;;;22.40;99.90;;;;;;5088965;28;20533;-65
2023/08/21 00:30:01;;;;;;;11.10;10.10;;;22.30;99.90;;;;;;5089354;28;20982;-66
2023/08/21 00:32:29;;;;;;;11.57;10.67;;;22.30;99.90;;;;;;5089184;28;20567;-65
2023/08/21 00:34:56;;;;;;;9.93;9.23;;;22.30;99.90;;;;;;5089453;28;20456;-65
2023/08/21 00:37:22;;;;;;;12.63;11.53;;;22.20;99.90;;;;;;5088680;28;20451;-65
2023/08/21 00:39:49;;;;;;;10.33;9.53;;;22.20;99.90;;;;;;5089368;28;20968;-65
2023/08/21 00:42:16;;;;;;;11.30;10.50;;;22.20;99.90;;;;;;5089460;28;20470;-65
2023/08/21 00:44:43;;;;;;;12.00;11.00;;;22.20;99.90;;;;;;5089722;28;20533;-65
2023/08/21 00:47:10;;;;;;;12.00;10.97;;;22.20;99.90;;;;;;5088603;28;20816;-65
2023/08/21 00:49:39;;;;;;;13.07;11.90;;;22.20;99.90;;;;;;5089232;28;21013;-65
2023/08/21 00:52:09;;;;;;;11.30;10.40;;;22.20;99.90;;;;;;5087667;28;20493;-65
2023/08/21 00:54:36;;;;;;;12.27;11.17;;;22.20;99.90;;;;;;5088812;28;20965;-65
2023/08/21 00:57:03;;;;;;;11.77;10.77;;;22.10;99.90;;;;;;5088224;28;20449;-65
2023/08/21 00:59:30;;;;;;;12.50;11.50;;;22.10;99.90;;;;;;5088882;28;20461;-65
2023/08/21 01:01:58;;;;;;;11.87;10.90;;;22.10;99.90;;;;;;5088795;28;20521;-65
2023/08/21 01:04:25;;;;;;;12.23;11.03;;;22.00;99.90;;;;;;5088732;28;20531;-65
2023/08/21 01:06:53;;;;;;;11.90;10.80;;;22.00;99.90;;;;;;5087956;28;21033;-65
2023/08/21 01:09:30;;;;;;;11.97;11.17;;;22.00;99.90;;;;;;5088902;28;21125;-65
2023/08/21 01:12:07;;;;;;;13.00;11.80;;;22.00;99.90;;;;;;5088808;28;20941;-65
2023/08/21 01:14:42;;;;;;;12.70;11.50;;;22.00;99.90;;;;;;5088268;28;20444;-65
2023/08/21 01:17:12;;;;;;;11.50;10.60;;;22.00;99.90;;;;;;5087654;28;20557;-66
2023/08/21 01:19:43;;;;;;;12.53;11.60;;;21.90;99.90;;;;;;5088602;28;20460;-66
2023/08/21 01:22:11;;;;;;;11.67;10.70;;;21.90;99.90;;;;;;5088340;28;20548;-66
2023/08/21 01:24:39;;;;;;;12.20;11.10;;;21.90;99.90;;;;;;5088365;28;20485;-65
2023/08/21 01:27:06;;;;;;;13.63;12.53;;;21.90;99.90;;;;;;5087547;28;20458;-65
2023/08/21 01:29:34;;;;;;;13.20;12.20;;;21.90;99.90;;;;;;5088557;28;20536;-65
2023/08/21 01:32:08;;;;;;;11.70;10.70;;;21.90;99.90;;;;;;5088020;28;20550;-65
2023/08/21 01:34:35;;;;;;;13.17;11.97;;;21.80;99.90;;;;;;5088481;28;20459;-65
2023/08/21 01:37:04;;;;;;;14.23;12.93;;;21.80;99.90;;;;;;5087617;28;21045;-65
2023/08/21 01:39:31;;;;;;;11.40;10.50;;;21.80;99.90;;;;;;5088354;28;20441;-66
2023/08/21 01:41:59;;;;;;;11.90;10.90;;;21.80;99.90;;;;;;5088037;28;20456;-66
2023/08/21 01:44:27;;;;;;;12.13;11.13;;;21.80;99.90;;;;;;5088310;28;20822;-65
2023/08/21 01:46:54;;;;;;;12.23;11.23;;;21.80;99.90;;;;;;5087514;28;20455;-65
2023/08/21 01:49:20;;;;;;;11.43;10.47;;;21.80;99.90;;;;;;5088336;28;21237;-65
2023/08/21 01:51:48;;;;;;;12.13;10.93;;;21.80;99.90;;;;;;5087379;28;20491;-65
2023/08/21 01:54:14;;;;;;;13.07;11.97;;;21.70;99.90;;;;;;5088173;28;20892;-65
2023/08/21 01:56:41;;;;;;;12.10;10.90;;;21.70;99.90;;;;;;5087461;28;20645;-65
2023/08/21 01:59:09;;;;;;;12.50;11.40;;;21.70;99.90;;;;;;5088156;28;20449;-65
2023/08/21 02:01:36;;;;;;;12.43;11.23;;;21.70;99.90;;;;;;5088027;28;20443;-65
2023/08/21 02:04:03;;;;;;;12.57;11.40;;;21.70;99.90;;;;;;5088093;28;20469;-65
2023/08/21 02:06:30;;;;;;;12.33;11.30;;;21.70;99.90;;;;;;5087265;28;20453;-66
2023/08/21 02:08:57;;;;;;;14.50;13.30;;;21.60;99.90;;;;;;5088070;28;20974;-65
2023/08/21 02:11:24;;;;;;;11.73;10.83;;;21.60;99.90;;;;;;5087984;28;20861;-65
2023/08/21 02:13:50;;;;;;;12.47;11.47;;;21.60;99.90;;;;;;5088034;28;20471;-65
2023/08/21 02:16:20;;;;;;;13.27;12.23;;;21.60;99.90;;;;;;5087195;28;20445;-65
2023/08/21 02:18:47;;;;;;;12.57;11.50;;;21.50;99.90;;;;;;5087640;28;20509;-65
2023/08/21 02:21:14;;;;;;;12.27;11.37;;;21.50;99.90;;;;;;5087537;28;20459;-65
2023/08/21 02:23:41;;;;;;;12.97;11.77;;;21.50;99.90;;;;;;5087765;28;20555;-65
2023/08/21 02:26:08;;;;;;;12.33;11.30;;;21.50;99.90;;;;;;5086989;28;20440;-65
2023/08/21 02:28:34;;;;;;;12.77;11.77;;;21.50;99.90;;;;;;5091904;28;20455;-65
2023/08/21 02:31:01;;;;;;;12.73;11.70;;;21.50;99.90;;;;;;5091674;28;20499;-65
2023/08/21 02:33:29;;;;;;;11.93;11.03;;;21.40;99.90;;;;;;5091681;28;20478;-65
2023/08/21 02:35:56;;;;;;;13.30;12.13;;;21.40;99.90;;;;;;5091304;28;20459;-65
2023/08/21 02:38:23;;;;;;;11.67;10.57;;;21.40;99.90;;;;;;5091577;28;20534;-65
2023/08/21 02:40:50;;;;;;;12.77;11.70;;;21.40;99.90;;;;;;5091709;28;20447;-65
2023/08/21 02:43:17;;;;;;;12.57;11.47;;;21.40;99.90;;;;;;5091252;28;20460;-65
2023/08/21 02:45:44;;;;;;;12.73;11.77;;;21.30;99.90;;;;;;5091501;28;20472;-65
2023/08/21 02:48:10;;;;;;;11.77;10.87;;;21.30;99.90;;;;;;5090806;28;20453;-65
2023/08/21 02:50:39;;;;;;;12.87;11.67;;;21.30;99.90;;;;;;5090843;28;20458;-65
2023/08/21 02:53:05;;;;;;;11.80;10.80;;;21.30;99.90;;;;;;5090303;28;20474;-65
2023/08/21 02:55:32;;;;;;;11.83;10.93;;;21.30;99.90;;;;;;5091317;28;20448;-65
2023/08/21 02:57:59;;;;;;;11.90;10.90;;;21.30;99.90;;;;;;5090509;28;20943;-65
2023/08/21 03:00:26;;;;;;;11.70;10.50;;;21.30;99.90;;;;;;5091492;28;20525;-65
2023/08/21 03:02:53;;;;;;;11.27;10.40;;;21.20;99.90;;;;;;5091280;28;20555;-65
2023/08/21 03:05:20;;;;;;;13.13;11.70;;;21.20;99.90;;;;;;5091348;28;20922;-65
2023/08/21 03:07:48;;;;;;;12.07;11.17;;;21.20;99.90;;;;;;5090447;28;20472;-65
2023/08/21 03:10:15;;;;;;;12.43;11.43;;;21.20;99.90;;;;;;5090963;28;20449;-65
2023/08/21 03:12:42;;;;;;;12.33;11.03;;;21.20;99.90;;;;;;5090850;28;20502;-65
2023/08/21 03:15:09;;;;;;;11.60;10.70;;;21.10;99.90;;;;;;5090922;28;20454;-65
2023/08/21 03:17:36;;;;;;;11.53;10.37;;;21.10;99.90;;;;;;5090189;28;20533;-65
2023/08/21 03:20:04;;;;;;;12.87;11.70;;;21.10;99.90;;;;;;5090868;28;20989;-65
2023/08/21 03:22:32;;;;;;;12.73;11.47;;;21.10;99.90;;;;;;5091295;28;20856;-65
2023/08/21 03:25:00;;;;;;;12.87;11.80;;;21.10;99.90;;;;;;5090923;28;20463;-65
2023/08/21 03:27:27;;;;;;;12.83;11.57;;;21.10;99.90;;;;;;5087005;28;20459;-65
2023/08/21 03:29:54;;;;;;;12.13;11.03;;;21.10;99.90;;;;;;5090571;28;20926;-65
2023/08/21 03:32:21;;;;;;;12.47;11.27;;;21.00;99.90;;;;;;5089470;28;20491;-65
2023/08/21 03:34:47;;;;;;;12.33;11.43;;;21.10;99.90;;;;;;5089968;28;20454;-65
2023/08/21 03:37:14;;;;;;;12.90;11.80;;;21.00;99.90;;;;;;5088806;28;20451;-65
2023/08/21 03:39:41;;;;;;;13.30;12.07;;;21.00;99.90;;;;;;5087713;28;20453;-65
2023/08/21 03:42:09;;;;;;;13.30;11.90;;;21.00;99.90;;;;;;5070059;28;20471;-65
2023/08/21 03:44:38;;;;;;;13.03;11.27;;;20.90;99.90;;;;;;5083257;28;20956;-65
2023/08/21 03:47:05;;;;;;;12.20;11.20;;;20.90;99.90;;;;;;5076310;28;20454;-65
2023/08/21 03:49:32;;;;;;;12.00;11.00;;;20.90;99.90;;;;;;5070315;28;20461;-65
2023/08/21 03:51:59;;;;;;;11.53;10.63;;;20.90;99.90;;;;;;5068731;28;20570;-65
2023/08/21 03:54:26;;;;;;;13.87;12.53;;;20.90;99.90;;;;;;5070451;28;20447;-65
2023/08/21 03:56:52;;;;;;;14.07;12.83;;;20.90;99.90;;;;;;5069123;28;21051;-65
2023/08/21 03:59:22;;;;;;;14.00;12.53;;;20.90;99.90;;;;;;5069860;28;20458;-65
2023/08/21 04:01:49;;;;;;;12.30;11.10;;;20.90;99.90;;;;;;5069762;28;20452;-65
2023/08/21 04:04:16;;;;;;;11.70;10.60;;;20.90;99.90;;;;;;5069658;28;20454;-65
2023/08/21 04:06:43;;;;;;;13.20;12.00;;;20.80;99.90;;;;;;5069163;28;20475;-65
2023/08/21 04:09:10;;;;;;;14.73;13.40;;;20.80;99.90;;;;;;5069937;28;20448;-65
2023/08/21 04:11:37;;;;;;;13.33;12.03;;;20.80;99.90;;;;;;5069669;28;20587;-65
2023/08/21 04:14:04;;;;;;;13.40;12.37;;;20.80;99.90;;;;;;5069658;28;20488;-65
2023/08/21 04:16:33;;;;;;;12.67;11.67;;;20.80;99.90;;;;;;5068794;28;20540;-65
2023/08/21 04:18:59;;;;;;;13.63;12.37;;;20.80;99.90;;;;;;5069687;28;20445;-65
2023/08/21 04:21:26;;;;;;;13.20;12.07;;;20.80;99.90;;;;;;5069901;28;20469;-65
2023/08/21 04:23:54;;;;;;;13.50;12.10;;;20.80;99.90;;;;;;5069494;28;20477;-65
2023/08/21 04:26:20;;;;;;;13.97;12.67;;;20.80;99.90;;;;;;5068516;28;20866;-65
2023/08/21 04:28:47;;;;;;;14.93;13.53;;;20.70;99.90;;;;;;5069200;28;20456;-65
2023/08/21 04:31:14;;;;;;;14.30;13.20;;;20.70;99.90;;;;;;5068947;28;20833;-65
2023/08/21 04:33:42;;;;;;;12.13;11.23;;;20.70;99.90;;;;;;5068958;28;20468;-65
2023/08/21 04:36:15;;;;;;;12.67;11.50;;;20.70;99.90;;;;;;5068507;28;20454;-65
2023/08/21 04:38:42;;;;;;;13.73;12.43;;;20.70;99.90;;;;;;5069272;28;20454;-65
2023/08/21 04:41:09;;;;;;;14.20;12.90;;;20.70;99.90;;;;;;5069037;28;21149;-65
2023/08/21 04:43:36;;;;;;;12.83;11.53;;;20.70;99.90;;;;;;5073596;28;20478;-65
2023/08/21 04:46:04;;;;;;;13.00;11.80;;;20.70;99.90;;;;;;5083293;28;20445;-65
2023/08/21 04:48:31;;;;;;;12.13;11.10;;;20.70;99.90;;;;;;5068919;28;20453;-65
2023/08/21 04:50:59;;;;;;;15.20;12.70;;;20.70;99.90;;;;;;5068276;28;20546;-65
2023/08/21 04:53:26;;;;;;;12.57;11.67;;;20.70;99.90;;;;;;5067668;28;20497;-65
2023/08/21 04:55:53;;;;;;;14.77;13.37;;;20.70;99.90;;;;;;5068248;28;20459;-65
2023/08/21 04:58:20;;;;;;;12.40;11.30;;;20.70;99.90;;;;;;5068744;28;20448;-65
2023/08/21 05:00:47;;;;;;;12.70;11.67;;;20.70;99.90;;;;;;5068696;28;20451;-65
2023/08/21 05:03:13;;;;;;;14.73;13.40;;;20.70;99.90;;;;;;5068519;28;20553;-65
2023/08/21 05:05:40;;;;;;;13.63;12.53;;;20.70;99.90;;;;;;5068686;28;20507;-65
2023/08/21 05:08:08;;;;;;;12.80;11.70;;;20.70;99.90;;;;;;5067769;28;20458;-65
2023/08/21 05:10:35;;;;;;;13.47;12.37;;;20.70;99.90;;;;;;5068367;28;20448;-65
2023/08/21 05:13:02;;;;;;;14.13;12.77;;;20.70;99.90;;;;;;5068384;28;20876;-66
2023/08/21 05:15:29;;;;;;;14.47;13.30;;;20.70;99.90;;;;;;5073101;28;20985;-65
2023/08/21 05:17:56;;;;;;;12.13;11.13;;;20.70;99.90;;;;;;5087579;28;20445;-65
2023/08/21 05:20:22;;;;;;;13.00;11.80;;;20.80;99.90;;;;;;5089179;28;20457;-65
2023/08/21 05:22:49;;;;;;;13.07;11.77;;;20.80;99.90;;;;;;5088691;28;21004;-66
2023/08/21 05:25:17;;;;;;;13.30;12.10;;;20.80;99.90;;;;;;5088471;28;20451;-65
2023/08/21 05:27:44;;;;;;;14.30;12.30;;;20.80;99.90;;;;;;5087598;28;20453;-65
2023/08/21 05:30:13;;;;;;;12.97;11.87;;;20.80;99.90;;;;;;5087004;28;20542;-65
2023/08/21 05:32:40;;;;;;;13.03;11.83;;;20.90;99.90;;;;;;5087847;28;20495;-65
2023/08/21 05:35:08;;;;;;;12.80;11.60;;;20.90;99.90;;;;;;5088305;28;20447;-65
2023/08/21 05:37:35;;;;;;;12.20;11.20;;;20.90;99.90;;;;;;5087320;28;20788;-65
2023/08/21 05:40:03;;;;;;;11.77;10.73;;;21.00;99.90;;;;;;5086990;28;20945;-65
2023/08/21 05:42:31;;;;;;;12.60;11.50;;;21.00;99.90;;;;;;5088033;28;20471;-65
2023/08/21 05:44:58;;;;;;;13.47;12.27;;;21.00;99.90;;;;;;5088378;28;20539;-65
2023/08/21 05:47:26;;;;;;;12.20;11.10;;;21.10;99.90;;;;;;5087695;28;20451;-65
2023/08/21 05:49:53;;;;;;;12.47;11.37;;;21.10;99.90;;;;;;5088087;28;20453;-65
2023/08/21 05:52:22;;;;;;;12.03;10.93;;;21.20;99.90;;;;;;5087729;28;20489;-65
2023/08/21 05:54:49;;;;;;;13.00;11.80;;;21.20;99.90;;;;;;5088209;28;20448;-66
2023/08/21 05:57:16;;;;;;;13.03;11.83;;;21.30;99.90;;;;;;5087308;28;20531;-66
2023/08/21 05:59:47;;;;;;;15.60;11.10;;;21.40;99.90;;;;;;5087972;28;20452;-65
2023/08/21 06:02:14;;;;;;;12.13;10.87;;;21.50;99.90;;;;;;5087409;28;20473;-65
2023/08/21 06:04:42;;;;;;;12.23;11.17;;;21.70;99.90;;;;;;5088158;28;20814;-65
2023/08/21 06:07:09;;;;;;;13.00;11.90;;;21.80;99.90;;;;;;5087367;28;20943;-65
2023/08/21 06:09:36;;;;;;;11.40;10.50;;;22.00;99.90;;;;;;5087719;28;20946;-65
2023/08/21 06:12:03;;;;;;;11.97;10.87;;;22.20;99.90;;;;;;5087842;28;20491;-65
2023/08/21 06:14:30;;;;;;;12.43;11.43;;;22.40;99.90;;;;;;5088041;28;20837;-64
2023/08/21 06:17:01;;;;;;;11.50;10.50;;;22.60;99.90;;;;;;5086992;28;20543;-65
2023/08/21 06:19:28;;;;;;;12.07;11.03;;;22.80;99.90;;;;;;5087648;28;20458;-66
2023/08/21 06:21:55;;;;;;;12.37;11.27;;;23.00;99.90;;;;;;5087757;28;20533;-66
2023/08/21 06:24:22;;;;;;;11.67;10.57;;;23.10;99.90;;;;;;5087904;28;20446;-65
2023/08/21 06:26:49;;;;;;;11.90;10.90;;;23.30;99.90;;;;;;5086478;28;20438;-66
2023/08/21 06:29:16;;;;;;;16.20;11.80;;;23.50;99.90;;;;;;5087423;28;20451;-65
2023/08/21 06:31:43;;;;;;;12.57;11.37;;;23.60;99.90;;;;;;5087325;28;20450;-65
2023/08/21 06:34:11;;;;;;;13.97;12.83;;;23.80;99.90;;;;;;5087848;28;20529;-66
2023/08/21 06:36:38;;;;;;;13.17;11.90;;;24.00;99.90;;;;;;5086807;28;20443;-66
2023/08/21 06:39:06;;;;;;;13.50;12.50;;;24.20;99.90;;;;;;5087715;28;20453;-66
2023/08/21 06:41:33;;;;;;;13.03;11.83;;;24.30;99.90;;;;;;5086671;28;20654;-66
2023/08/21 06:44:00;;;;;;;12.27;11.27;;;24.60;99.90;;;;;;5087718;28;20464;-66
2023/08/21 06:46:26;;;;;;;13.27;12.20;;;24.70;99.90;;;;;;5087050;28;20460;-66
2023/08/21 06:48:53;;;;;;;13.80;12.47;;;24.90;99.90;;;;;;5087664;28;20536;-66
2023/08/21 06:51:21;;;;;;;13.47;12.37;;;25.10;99.90;;;;;;5087447;28;20452;-66
2023/08/21 06:53:48;;;;;;;14.40;13.20;;;25.20;99.90;;;;;;5087512;28;20495;-66
2023/08/21 06:56:15;;;;;;;13.73;12.53;;;25.40;99.90;;;;;;5086668;28;21032;-66
2023/08/21 06:58:42;;;;;;;14.63;13.43;;;25.40;99.90;;;;;;5087766;28;20491;-66
2023/08/21 07:01:09;;;;;;;15.00;13.70;;;25.50;99.90;;;;;;5087429;28;20463;-64
2023/08/21 07:03:36;;;;;;;15.67;14.33;;;25.70;99.90;;;;;;5087397;28;20552;-65
2023/08/21 07:06:03;;;;;;;14.70;13.23;;;25.70;99.90;;;;;;5086494;28;20836;-65
2023/08/21 07:08:31;;;;;;;14.47;13.37;;;25.80;99.90;;;;;;5087414;28;20934;-65
2023/08/21 07:10:58;;;;;;;15.73;14.30;;;25.90;99.90;;;;;;5087795;28;20538;-65
2023/08/21 07:13:25;;;;;;;15.80;14.53;;;26.00;99.90;;;;;;5087894;28;20939;-65
2023/08/21 07:15:54;;;;;;;14.60;13.37;;;26.20;99.90;;;;;;5088957;28;20447;-65
2023/08/21 07:18:21;;;;;;;15.03;13.80;;;26.30;99.90;;;;;;5090628;28;21154;-66
2023/08/21 07:20:48;;;;;;;15.33;13.83;;;26.40;99.90;;;;;;5090800;28;20454;-66
2023/08/21 07:23:15;;;;;;;15.77;14.63;;;26.60;99.90;;;;;;5090607;28;21006;-66
2023/08/21 07:25:44;;;;;;;14.70;13.60;;;26.70;99.90;;;;;;5090815;28;20450;-66
2023/08/21 07:28:11;;;;;;;16.53;14.93;;;26.80;99.90;;;;;;5087905;28;20448;-66
2023/08/21 07:30:38;;;;;;;16.57;15.30;;;27.00;99.90;;;;;;5089112;28;20467;-66
2023/08/21 07:33:05;;;;;;;16.20;14.90;;;27.10;99.90;;;;;;5090045;28;20488;-66
2023/08/21 07:35:33;;;;;;;16.23;14.90;;;27.20;99.90;;;;;;5089936;28;20456;-66
2023/08/21 07:38:00;;;;;;;17.30;15.97;;;27.40;99.90;;;;;;5089954;28;20452;-66
2023/08/21 07:40:27;;;;;;;17.07;15.57;;;27.50;99.90;;;;;;5089071;28;20449;-66
2023/08/21 07:42:55;;;;;;;16.13;14.83;;;27.50;99.90;;;;;;5090462;28;20481;-66
2023/08/21 07:45:22;;;;;;;15.47;14.20;;;27.60;99.90;;;;;;5090195;28;20453;-66
2023/08/21 07:47:49;;;;;;;17.20;15.90;;;27.70;99.90;;;;;;5089163;28;20449;-66
2023/08/21 07:50:16;;;;;;;16.77;15.47;;;27.80;99.90;;;;;;5089565;28;20449;-66
2023/08/21 07:52:43;;;;;;;16.33;14.97;;;27.80;99.90;;;;;;5089934;28;20911;-66
2023/08/21 07:55:10;;;;;;;15.90;14.70;;;27.80;99.90;;;;;;5089891;28;20456;-66
2023/08/21 07:57:37;;;;;;;16.80;15.60;;;27.90;99.90;;;;;;5089041;28;20457;-66
2023/08/21 08:00:08;;;;;;;16.90;15.20;;;27.90;99.90;;;;;;5089209;28;20885;-66
2023/08/21 08:02:35;;;;;;;17.80;16.30;;;28.00;99.90;;;;;;5089501;28;20475;-66
2023/08/21 08:05:02;;;;;;;18.20;16.60;;;28.10;99.90;;;;;;5090022;28;20460;-66
2023/08/21 08:07:29;;;;;;;16.80;15.20;;;28.10;99.90;;;;;;5088993;28;21230;-66
2023/08/21 08:09:56;;;;;;;19.23;17.70;;;28.10;99.90;;;;;;5089310;28;21112;-66
2023/08/21 08:12:23;;;;;;;17.60;16.17;;;28.20;99.90;;;;;;5089034;28;20557;-66
2023/08/21 08:14:50;;;;;;;17.97;16.50;;;28.20;99.90;;;;;;5089212;28;20799;-67
2023/08/21 08:17:18;;;;;;;16.80;15.30;;;28.20;99.90;;;;;;5088673;28;20453;-66
2023/08/21 08:19:45;;;;;;;16.47;15.10;;;28.10;99.90;;;;;;5094510;28;20480;-66
2023/08/21 08:22:12;;;;;;;17.20;16.00;;;28.20;99.90;;;;;;5108644;28;21203;-67
2023/08/21 08:24:38;;;;;;;15.83;14.73;;;28.20;99.90;;;;;;5109180;28;20444;-67
2023/08/21 08:27:06;;;;;;;16.53;15.30;;;28.30;99.90;;;;;;5107898;28;20833;-66
2023/08/21 08:29:33;;;;;;;18.80;17.43;;;28.30;99.90;;;;;;5108305;28;20493;-67
2023/08/21 08:32:00;;;;;;;17.57;16.10;;;28.30;99.90;;;;;;5108641;28;20504;-66
2023/08/21 08:34:28;;;;;;;16.83;15.43;;;28.30;99.90;;;;;;5108727;28;20576;-67
2023/08/21 08:36:55;;;;;;;17.00;15.60;;;28.40;99.90;;;;;;5108364;28;21119;-66
2023/08/21 08:39:22;;;;;;;18.83;17.23;;;28.40;99.90;;;;;;5107635;28;20459;-66
2023/08/21 08:41:57;;;;;;;17.20;15.80;;;28.60;99.90;;;;;;5108567;28;20452;-66
2023/08/21 08:44:26;;;;;;;17.67;16.07;;;28.60;99.90;;;;;;5089047;28;21025;-66
2023/08/21 08:46:53;;;;;;;16.03;14.63;;;28.70;99.90;;;;;;5087465;28;20453;-66
2023/08/21 08:49:21;;;;;;;17.80;16.23;;;28.90;99.90;;;;;;5088447;28;21031;-67
2023/08/21 08:51:51;;;;;;;17.47;15.87;;;29.00;99.90;;;;;;5088074;28;20883;-67
2023/08/21 08:54:20;;;;;;;18.20;16.60;;;29.20;99.90;;;;;;5087946;28;20490;-66
2023/08/21 08:56:47;;;;;;;17.50;16.00;;;29.30;99.90;;;;;;5087364;28;21041;-66
2023/08/21 08:59:14;;;;;;;16.80;15.33;;;29.40;99.90;;;;;;5088379;28;20556;-67
2023/08/21 09:01:41;;;;;;;16.13;14.80;;;29.50;99.90;;;;;;5087856;28;20458;-66
2023/08/21 09:04:09;;;;;;;16.53;15.00;;;29.60;99.90;;;;;;5086438;28;20446;-66
2023/08/21 09:06:36;;;;;;;16.50;15.13;;;29.70;99.90;;;;;;5085504;28;20447;-66
2023/08/21 09:09:05;;;;;;;15.50;14.30;;;29.70;99.90;;;;;;5087513;28;20881;-66
2023/08/21 09:11:34;;;;;;;16.00;14.73;;;29.90;99.90;;;;;;5085927;28;20555;-67
2023/08/21 09:14:01;;;;;;;16.47;15.07;;;30.00;99.90;;;;;;5087142;28;20496;-67
2023/08/21 09:16:28;;;;;;;17.17;15.53;;;30.10;99.90;;;;;;5086585;28;20444;-67
2023/08/21 09:18:56;;;;;;;14.73;13.73;;;30.20;99.90;;;;;;5087189;28;21027;-66
2023/08/21 09:21:24;;;;;;;13.27;12.07;;;30.30;99.90;;;;;;5087596;28;20519;-67
2023/08/21 09:23:58;;;;;;;13.80;12.50;;;30.40;99.90;;;;;;5087089;28;20465;-67
2023/08/21 09:26:27;;;;;;;15.57;13.53;;;30.40;99.90;;;;;;5085414;28;20459;-67
2023/08/21 09:28:54;;;;;;;12.47;11.47;;;30.50;99.90;;;;;;5084332;28;21203;-66
2023/08/21 09:31:25;;;;;;;14.37;12.97;;;30.50;99.90;;;;;;5087009;28;21003;-67
2023/08/21 09:34:00;;;;;;;12.57;11.57;;;30.60;99.90;;;;;;5087265;28;20500;-67
2023/08/21 09:36:27;;;;;;;10.90;10.10;;;30.60;99.90;;;;;;5086058;28;20456;-67
2023/08/21 09:38:54;;;;;;;11.43;10.50;;;30.70;99.90;;;;;;5087209;28;20551;-66
2023/08/21 09:41:21;;;;;;;11.20;10.30;;;30.70;99.90;;;;;;5086032;28;20446;-66
2023/08/21 09:43:49;;;;;;;8.87;8.17;;;30.70;99.90;;;;;;5087122;28;20466;-67
2023/08/21 09:46:17;;;;;;;9.83;9.03;;;30.70;98.20;;;;;;5086713;28;20449;-66
2023/08/21 09:48:45;;;;;;;9.90;9.10;;;30.80;97.60;;;;;;5086968;28;20479;-66
2023/08/21 09:51:12;;;;;;;9.73;8.90;;;30.80;97.60;;;;;;5087535;28;20520;-66
2023/08/21 09:53:40;;;;;;;9.90;9.00;;;30.90;97.60;;;;;;5087306;28;20496;-67
2023/08/21 09:56:07;;;;;;;10.13;9.10;;;30.80;96.40;;;;;;5091046;28;20453;-67
2023/08/21 09:58:35;;;;;;;10.03;9.23;;;30.80;97.10;;;;;;5087230;28;20461;-67
2023/08/21 10:01:11;;;;;;;9.37;8.50;;;30.90;96.80;;;;;;5087197;28;20529;-67
2023/08/21 10:03:39;;;;;;;9.40;8.70;;;31.00;97.00;;;;;;5086957;28;20526;-67
2023/08/21 10:06:09;;;;;;;10.53;9.63;;;31.00;97.60;;;;;;5086039;28;20451;-66
2023/08/21 10:08:39;;;;;;;9.43;8.63;;;31.10;98.70;;;;;;5086630;28;21015;-67
2023/08/21 10:11:07;;;;;;;9.97;9.07;;;31.10;97.00;;;;;;5070235;28;20616;-67
2023/08/21 10:13:35;;;;;;;9.80;9.10;;;31.20;96.90;;;;;;5086680;28;20909;-66
2023/08/21 10:16:05;;;;;;;9.53;8.83;;;31.20;97.60;;;;;;5085969;28;20550;-67
2023/08/21 10:18:33;;;;;;;10.37;9.57;;;31.30;97.50;;;;;;5086750;28;20911;-67
2023/08/21 10:21:12;;;;;;;10.10;9.27;;;31.30;96.70;;;;;;5086529;28;20452;-66
2023/08/21 10:23:41;;;;;;;8.67;8.07;;;31.30;96.30;;;;;;5087210;28;20511;-67
2023/08/21 10:26:10;;;;;;;9.43;8.73;;;31.30;96.40;;;;;;5086331;28;20447;-66
2023/08/21 10:28:54;;;;;;;9.70;9.00;;;31.40;94.70;;;;;;5086834;28;20532;-67
2023/08/21 10:31:29;;;;;;;9.47;8.77;;;31.30;95.30;;;;;;5072182;28;20509;-66
2023/08/21 10:33:56;;;;;;;9.50;8.80;;;31.30;95.30;;;;;;5086382;28;20486;-66
2023/08/21 10:37:05;;;;;;;11.60;10.20;;;31.30;95.60;;;;;;5086201;28;20565;-67
2023/08/21 10:39:33;;;;;;;9.67;8.97;;;31.30;95.60;;;;;;5071804;28;20508;-66
2023/08/21 10:42:04;;;;;;;10.77;9.87;;;31.30;96.30;;;;;;5086500;28;20536;-66
2023/08/21 10:44:48;;;;;;;9.67;8.73;;;31.30;95.50;;;;;;5085741;28;20458;-66
2023/08/21 10:47:18;;;;;;;10.53;9.70;;;31.20;95.90;;;;;;5084997;28;20465;-66
2023/08/21 10:49:46;;;;;;;9.27;8.67;;;31.10;96.50;;;;;;5087974;28;20793;-66
2023/08/21 10:52:14;;;;;;;9.10;8.50;;;31.20;96.80;;;;;;5090772;28;20470;-66
2023/08/21 10:54:45;;;;;;;9.13;8.30;;;31.30;96.80;;;;;;5089975;28;20545;-66
2023/08/21 10:57:12;;;;;;;8.17;7.57;;;31.30;95.10;;;;;;5089121;28;20827;-67
2023/08/21 10:59:39;;;;;;;8.90;8.17;;;31.40;95.90;;;;;;5089646;28;20457;-66
2023/08/21 11:02:06;;;;;;;9.30;8.60;;;31.40;95.50;;;;;;5089953;28;20846;-66
2023/08/21 11:04:44;;;;;;;9.57;8.50;;;31.40;94.80;;;;;;5089567;28;20454;-67
2023/08/21 11:07:11;;;;;;;8.03;7.43;;;31.40;94.40;;;;;;5083538;28;20535;-67
2023/08/21 11:09:38;;;;;;;9.43;8.63;;;31.40;93.80;;;;;;5089432;28;20458;-66
2023/08/21 11:12:08;;;;;;;9.37;8.67;;;31.30;94.20;;;;;;5090072;28;20479;-66
2023/08/21 11:14:35;;;;;;;8.47;7.77;;;31.30;95.00;;;;;;5089507;28;20494;-66
2023/08/21 11:17:02;;;;;;;8.87;8.10;;;31.20;94.70;;;;;;5088982;28;20453;-67
2023/08/21 11:19:31;;;;;;;8.20;7.50;;;31.10;95.30;;;;;;5089524;28;20458;-66
2023/08/21 11:22:03;;;;;;;8.70;8.00;;;31.00;95.10;;;;;;5089271;28;20946;-67
2023/08/21 11:24:41;;;;;;;7.33;6.63;;;31.00;93.40;;;;;;5089247;28;20457;-66
2023/08/21 11:27:09;;;;;;;7.20;6.57;;;31.00;93.20;;;;;;5082559;28;20449;-67
2023/08/21 11:29:38;;;;;;;7.50;7.00;;;31.10;93.20;;;;;;5088835;28;20454;-67
2023/08/21 11:32:13;;;;;;;7.00;6.50;;;31.20;94.60;;;;;;5089175;28;20472;-66
2023/08/21 11:34:41;;;;;;;6.63;6.13;;;31.30;92.40;;;;;;5089146;28;20491;-66
2023/08/21 11:37:09;;;;;;;7.30;6.70;;;31.50;91.40;;;;;;5088343;28;20539;-67
2023/08/21 11:39:44;;;;;;;6.77;6.27;;;31.70;92.70;;;;;;5086997;28;20846;-67
2023/08/21 11:42:12;;;;;;;6.70;6.20;;;31.90;91.70;;;;;;5089262;28;20465;-67
2023/08/21 11:44:47;;;;;;;6.90;6.50;;;32.10;91.80;;;;;;5088796;28;20452;-67
2023/08/21 11:47:15;;;;;;;6.57;5.97;;;32.20;90.90;;;;;;5088240;28;20525;-66
2023/08/21 11:49:43;;;;;;;6.70;6.30;;;32.40;91.00;;;;;;5088406;28;20487;-67
2023/08/21 11:52:12;;;;;;;6.80;6.07;;;32.50;84.90;;;;;;5089006;28;21170;-66
2023/08/21 11:54:40;;;;;;;6.17;5.77;;;32.70;87.10;;;;;;5088765;28;20609;-66
2023/08/21 11:57:08;;;;;;;6.37;5.90;;;32.80;86.60;;;;;;5087819;28;21005;-66
2023/08/21 11:59:35;;;;;;;5.20;4.80;;;32.90;84.40;;;;;;5088646;28;20445;-66
2023/08/21 12:02:09;;;;;;;6.07;5.67;;;33.00;84.20;;;;;;5088958;28;20557;-66
2023/08/21 12:04:36;;;;;;;7.07;6.47;;;33.20;86.20;;;;;;5088928;28;20473;-66
2023/08/21 12:07:03;;;;;;;6.70;6.20;;;33.30;85.80;;;;;;5088466;28;20443;-66
2023/08/21 12:09:31;;;;;;;6.63;6.00;;;33.40;86.20;;;;;;5088948;28;20442;-66
2023/08/21 12:11:58;;;;;;;7.43;6.73;;;33.50;84.40;;;;;;5089033;28;20481;-66
2023/08/21 12:14:25;;;;;;;6.20;5.70;;;33.70;84.60;;;;;;5088841;28;20496;-66
2023/08/21 12:16:52;;;;;;;5.77;5.37;;;33.80;80.90;;;;;;5087801;28;20434;-67
2023/08/21 12:19:19;;;;;;;5.87;5.47;;;33.90;81.70;;;;;;5086564;28;20442;-66
2023/08/21 12:21:46;;;;;;;5.80;5.27;;;34.00;80.80;;;;;;5088965;28;20449;-66
2023/08/21 12:24:13;;;;;;;6.67;5.70;;;34.10;76.90;;;;;;5086981;28;20448;-67
2023/08/21 12:26:41;;;;;;;5.60;5.30;;;34.00;80.00;;;;;;5087777;28;21179;-66
2023/08/21 12:29:08;;;;;;;6.23;5.80;;;34.00;80.10;;;;;;5088310;28;20568;-67
2023/08/21 12:31:36;;;;;;;5.60;5.20;;;34.00;78.70;;;;;;5087819;28;20454;-67
2023/08/21 12:34:04;;;;;;;6.33;5.90;;;34.20;77.20;;;;;;5088095;28;20498;-66